Time;durP1;ratioP1;P1;durP2;ratioP2;P2;SDS_P1;SDS_P2;PMS_P1;PMS_P2;Temp;Humidity;BMP_temperature;BMP_pressure;BME280_temperature;BME280_humidity;BME280_pressure;Samples;Min_cycle;Max_cycle;Signal;HPM_P1;HPM_P2
2024/03/12 00:01:19;;;;;;;11.70;10.90;;;6.90;99.90;;;;;;5051454;28;20241;-79
2024/03/12 00:03:46;;;;;;;11.10;10.40;;;6.80;99.90;;;;;;5046470;28;20274;-79
2024/03/12 00:06:13;;;;;;;11.37;10.63;;;6.70;99.90;;;;;;5044476;28;20284;-79
2024/03/12 00:08:40;;;;;;;11.53;10.70;;;6.60;99.90;;;;;;5045530;28;20195;-79
2024/03/12 00:11:07;;;;;;;11.90;11.10;;;6.50;99.90;;;;;;5051698;28;20747;-79
2024/03/12 00:13:35;;;;;;;12.33;11.33;;;6.50;99.90;;;;;;5051648;28;20627;-79
2024/03/12 00:16:02;;;;;;;12.50;11.60;;;6.40;99.90;;;;;;5050888;28;20440;-80
2024/03/12 00:18:32;;;;;;;12.33;11.43;;;6.40;99.90;;;;;;5050411;28;20727;-79
2024/03/12 00:21:01;;;;;;;12.07;11.07;;;6.30;99.90;;;;;;5047978;28;20679;-79
2024/03/12 00:23:28;;;;;;;11.93;11.13;;;6.20;99.90;;;;;;5051307;28;20198;-79
2024/03/12 00:25:55;;;;;;;12.53;11.53;;;6.20;99.90;;;;;;5046443;28;20495;-79
2024/03/12 00:28:22;;;;;;;12.47;11.47;;;6.10;99.90;;;;;;5051063;28;20666;-79
2024/03/12 00:30:53;;;;;;;12.67;11.77;;;6.10;99.90;;;;;;5046228;28;20219;-79
2024/03/12 00:33:21;;;;;;;12.10;11.30;;;6.10;99.90;;;;;;5044618;28;20206;-79
2024/03/12 00:35:48;;;;;;;13.47;12.37;;;6.00;99.90;;;;;;5052733;28;20290;-79
2024/03/12 00:38:17;;;;;;;12.53;11.63;;;6.00;99.90;;;;;;5052300;28;20285;-79
2024/03/12 00:40:44;;;;;;;12.10;11.30;;;5.90;99.90;;;;;;5051167;28;20678;-79
2024/03/12 00:43:11;;;;;;;12.67;11.77;;;5.90;99.90;;;;;;5050851;28;20225;-79
2024/03/12 00:45:38;;;;;;;12.40;11.50;;;5.90;99.90;;;;;;5039312;28;20600;-79
2024/03/12 00:48:09;;;;;;;12.67;11.77;;;5.90;99.90;;;;;;5040806;28;20650;-79
2024/03/12 00:50:36;;;;;;;13.10;12.10;;;6.00;99.90;;;;;;5048765;28;20195;-79
2024/03/12 00:53:03;;;;;;;12.90;11.90;;;5.90;99.90;;;;;;5047972;28;20208;-79
2024/03/12 00:55:31;;;;;;;13.10;12.20;;;5.90;99.90;;;;;;5050432;28;20238;-79
2024/03/12 00:57:58;;;;;;;13.27;12.27;;;5.90;99.90;;;;;;5052076;28;20209;-79
2024/03/12 01:00:26;;;;;;;13.33;12.27;;;5.90;99.90;;;;;;5051879;28;20284;-79
2024/03/12 01:02:54;;;;;;;13.43;12.47;;;5.90;99.90;;;;;;5050191;28;20194;-79
2024/03/12 01:05:25;;;;;;;12.80;11.93;;;5.80;99.90;;;;;;5050618;28;20230;-79
2024/03/12 01:07:58;;;;;;;12.70;11.80;;;5.80;99.90;;;;;;5051936;28;20194;-79
2024/03/12 01:10:26;;;;;;;12.80;11.70;;;5.80;99.90;;;;;;5049084;28;20214;-79
2024/03/12 01:12:54;;;;;;;12.67;11.87;;;5.70;99.90;;;;;;5049949;28;20284;-79
2024/03/12 01:15:23;;;;;;;13.30;12.10;;;5.60;99.90;;;;;;5050662;28;20226;-79
2024/03/12 01:17:51;;;;;;;12.87;11.87;;;5.60;99.90;;;;;;5050535;28;20685;-79
2024/03/12 01:20:20;;;;;;;13.07;12.17;;;5.60;99.90;;;;;;5050718;28;20206;-79
2024/03/12 01:22:50;;;;;;;12.50;11.60;;;5.60;99.90;;;;;;5048572;28;20236;-79
2024/03/12 01:25:17;;;;;;;12.43;11.60;;;5.50;99.90;;;;;;5051096;28;20283;-79
2024/03/12 01:27:44;;;;;;;12.60;11.60;;;5.50;99.90;;;;;;5044658;28;20201;-79
2024/03/12 01:30:14;;;;;;;13.17;12.27;;;5.50;99.90;;;;;;5054568;28;20210;-79
2024/03/12 01:32:41;;;;;;;12.60;11.70;;;5.40;99.90;;;;;;5054044;28;20239;-79
2024/03/12 01:35:09;;;;;;;12.90;11.90;;;5.40;99.90;;;;;;5054458;28;20237;-79
2024/03/12 01:37:36;;;;;;;12.67;11.87;;;5.40;99.90;;;;;;5054352;28;20201;-79
2024/03/12 01:40:19;;;;;;;12.30;11.50;;;5.40;99.90;;;;;;5054315;28;20240;-79
2024/03/12 01:42:48;;;;;;;12.40;11.50;;;5.30;99.90;;;;;;5044050;28;20464;-79
2024/03/12 01:45:16;;;;;;;12.30;11.33;;;5.30;99.90;;;;;;5052065;28;20703;-78
2024/03/12 01:47:43;;;;;;;12.20;11.40;;;5.20;99.90;;;;;;5054269;28;20210;-79
2024/03/12 01:50:10;;;;;;;12.37;11.47;;;5.20;99.90;;;;;;5054441;28;20206;-79
2024/03/12 01:52:37;;;;;;;11.93;11.03;;;5.10;99.90;;;;;;5054015;28;20240;-79
2024/03/12 01:55:05;;;;;;;12.83;11.77;;;5.10;99.90;;;;;;5055560;28;20228;-79
2024/03/12 01:57:32;;;;;;;12.70;11.70;;;5.10;99.90;;;;;;5053669;28;20652;-79
2024/03/12 02:00:00;;;;;;;12.97;11.87;;;5.10;99.90;;;;;;5053908;28;20228;-79
2024/03/12 02:02:27;;;;;;;12.60;11.70;;;5.00;99.90;;;;;;5078947;28;20227;-79
2024/03/12 02:04:54;;;;;;;12.17;11.30;;;4.90;99.90;;;;;;5053637;28;20218;-79
2024/03/12 02:07:21;;;;;;;11.80;11.10;;;4.90;99.90;;;;;;5053290;28;20286;-79
2024/03/12 02:09:48;;;;;;;12.17;11.30;;;4.80;99.90;;;;;;5053691;28;20195;-79
2024/03/12 02:12:16;;;;;;;11.87;11.07;;;4.80;99.90;;;;;;5053400;28;20275;-78
2024/03/12 02:14:43;;;;;;;12.20;11.20;;;4.80;99.90;;;;;;5053692;28;20219;-79
2024/03/12 02:17:11;;;;;;;12.27;11.40;;;4.80;99.90;;;;;;5053547;28;20204;-79
2024/03/12 02:19:37;;;;;;;11.93;11.10;;;4.70;99.90;;;;;;5072425;28;20642;-79
2024/03/12 02:22:05;;;;;;;12.43;11.53;;;4.70;99.90;;;;;;5053354;28;20190;-79
2024/03/12 02:24:33;;;;;;;12.17;11.27;;;4.80;99.90;;;;;;5050487;28;20232;-79
2024/03/12 02:27:00;;;;;;;12.30;11.33;;;4.80;99.90;;;;;;5053570;28;20246;-79
2024/03/12 02:29:27;;;;;;;12.10;11.30;;;4.80;99.90;;;;;;5042594;28;20693;-79
2024/03/12 02:31:54;;;;;;;11.77;10.97;;;4.80;99.90;;;;;;5052966;28;20221;-79
2024/03/12 02:34:20;;;;;;;11.23;10.53;;;4.80;99.90;;;;;;5053338;28;20218;-79
2024/03/12 02:36:48;;;;;;;11.60;10.80;;;4.80;99.90;;;;;;5045470;28;20201;-79
2024/03/12 02:39:15;;;;;;;12.10;11.20;;;4.70;99.90;;;;;;5047665;28;20228;-79
2024/03/12 02:41:43;;;;;;;11.50;10.70;;;4.80;99.90;;;;;;5052763;28;20204;-79
2024/03/12 02:44:11;;;;;;;11.37;10.57;;;4.70;99.90;;;;;;5054715;28;20199;-79
2024/03/12 02:46:38;;;;;;;11.47;10.77;;;4.80;99.90;;;;;;5053968;28;20232;-79
2024/03/12 02:49:07;;;;;;;11.20;10.50;;;4.70;99.90;;;;;;5046491;28;20206;-79
2024/03/12 02:51:34;;;;;;;12.33;11.43;;;4.80;99.90;;;;;;5050795;28;20213;-78
2024/03/12 02:54:04;;;;;;;11.67;10.87;;;4.80;99.90;;;;;;5054188;28;20201;-79
2024/03/12 02:56:31;;;;;;;12.17;11.37;;;4.70;99.90;;;;;;5052668;28;20213;-79
2024/03/12 02:59:00;;;;;;;12.20;11.20;;;4.70;99.90;;;;;;5052897;28;20197;-79
2024/03/12 03:01:27;;;;;;;12.10;11.30;;;4.70;99.90;;;;;;5045624;28;20283;-79
2024/03/12 03:03:54;;;;;;;11.60;10.80;;;4.70;99.90;;;;;;5054287;28;20200;-79
2024/03/12 03:06:22;;;;;;;12.30;11.40;;;4.60;99.90;;;;;;5052429;28;20229;-79
2024/03/12 03:08:48;;;;;;;12.17;11.37;;;4.60;99.90;;;;;;5054007;28;20610;-79
2024/03/12 03:11:15;;;;;;;11.97;11.17;;;4.50;99.90;;;;;;5049066;28;20205;-79
2024/03/12 03:13:42;;;;;;;12.03;11.23;;;4.50;99.90;;;;;;5052068;28;20201;-79
2024/03/12 03:16:11;;;;;;;11.20;10.50;;;4.50;99.90;;;;;;5049489;28;20265;-79
2024/03/12 03:18:38;;;;;;;11.33;10.60;;;4.40;99.90;;;;;;5045532;28;20196;-79
2024/03/12 03:21:07;;;;;;;11.53;10.73;;;4.40;99.90;;;;;;5047618;28;20200;-79
2024/03/12 03:23:39;;;;;;;12.30;11.43;;;4.40;99.90;;;;;;5052443;28;20200;-79
2024/03/12 03:26:06;;;;;;;11.57;10.77;;;4.40;99.90;;;;;;5044046;28;20221;-79
2024/03/12 03:28:33;;;;;;;11.70;10.80;;;4.50;99.90;;;;;;5052282;28;20286;-79
2024/03/12 03:30:59;;;;;;;11.70;10.90;;;4.60;99.90;;;;;;5046640;28;20226;-79
2024/03/12 03:33:28;;;;;;;12.20;11.30;;;4.70;99.90;;;;;;5043441;28;20594;-79
2024/03/12 03:35:54;;;;;;;11.87;11.07;;;4.80;99.90;;;;;;5053601;28;20241;-79
2024/03/12 03:38:21;;;;;;;11.57;10.77;;;4.90;99.90;;;;;;5047623;28;20205;-79
2024/03/12 03:40:48;;;;;;;11.97;11.07;;;4.90;99.90;;;;;;5051946;28;20201;-79
2024/03/12 03:43:15;;;;;;;11.70;11.00;;;5.00;99.90;;;;;;5054233;28;20215;-78
2024/03/12 03:45:42;;;;;;;12.50;11.60;;;4.90;99.90;;;;;;5051797;28;20224;-78
2024/03/12 03:48:09;;;;;;;11.87;11.07;;;5.00;99.90;;;;;;5052276;28;20202;-77
2024/03/12 03:50:37;;;;;;;11.53;10.80;;;5.00;99.90;;;;;;5046251;28;20224;-78
2024/03/12 03:53:07;;;;;;;12.10;11.30;;;5.00;99.90;;;;;;5054000;28;20225;-80
2024/03/12 03:55:38;;;;;;;11.40;10.70;;;5.10;99.90;;;;;;5052507;28;20323;-81
2024/03/12 03:58:06;;;;;;;11.93;10.97;;;5.10;99.90;;;;;;5049380;28;20728;-79
2024/03/12 04:00:35;;;;;;;12.07;11.17;;;5.20;99.90;;;;;;5048325;28;20212;-79
2024/03/12 04:03:04;;;;;;;11.37;10.67;;;5.20;99.90;;;;;;5053301;28;20205;-80
2024/03/12 04:05:32;;;;;;;11.07;10.37;;;5.30;99.90;;;;;;5052173;28;20220;-80
2024/03/12 04:08:01;;;;;;;11.17;10.47;;;5.30;99.90;;;;;;5053146;28;20270;-79
2024/03/12 04:10:27;;;;;;;11.23;10.53;;;5.30;99.90;;;;;;5052345;28;20198;-79
2024/03/12 04:12:55;;;;;;;11.80;11.00;;;5.30;99.90;;;;;;5052225;28;20291;-79
2024/03/12 04:15:28;;;;;;;11.93;11.13;;;5.20;99.90;;;;;;5051133;28;20640;-78
2024/03/12 04:17:55;;;;;;;11.73;10.83;;;5.20;99.90;;;;;;5044275;28;20285;-79
2024/03/12 04:20:22;;;;;;;11.67;10.97;;;5.20;99.90;;;;;;5051465;28;20209;-79
2024/03/12 04:22:49;;;;;;;11.43;10.70;;;5.20;99.90;;;;;;5051541;28;20699;-79
2024/03/12 04:25:17;;;;;;;12.20;11.30;;;5.10;99.90;;;;;;5052644;28;20214;-78
2024/03/12 04:27:45;;;;;;;11.33;10.53;;;5.10;99.90;;;;;;5046298;28;20213;-78
2024/03/12 04:30:13;;;;;;;12.07;11.17;;;5.10;99.90;;;;;;5046140;28;20209;-79
2024/03/12 04:32:40;;;;;;;11.47;10.77;;;5.20;99.90;;;;;;5050776;28;20690;-78
2024/03/12 04:35:09;;;;;;;11.47;10.77;;;5.20;99.90;;;;;;5046654;28;20637;-78
2024/03/12 04:37:36;;;;;;;12.17;11.27;;;5.20;99.90;;;;;;5050196;28;20204;-78
2024/03/12 04:40:06;;;;;;;12.40;11.40;;;5.30;99.90;;;;;;5052619;28;20652;-78
2024/03/12 04:42:35;;;;;;;11.60;10.90;;;5.30;99.90;;;;;;5076315;28;20198;-78
2024/03/12 04:45:04;;;;;;;11.57;10.87;;;5.40;99.90;;;;;;5039328;28;20231;-77
2024/03/12 04:47:32;;;;;;;12.07;11.27;;;5.40;99.90;;;;;;5046031;28;20230;-78
2024/03/12 04:49:59;;;;;;;11.80;10.90;;;5.40;99.90;;;;;;5049174;28;20222;-78
2024/03/12 04:52:25;;;;;;;11.93;11.03;;;5.50;99.90;;;;;;5051528;28;20218;-78
2024/03/12 04:54:52;;;;;;;12.17;11.37;;;5.50;99.90;;;;;;5049658;28;20673;-78
2024/03/12 04:57:19;;;;;;;11.40;10.70;;;5.60;99.90;;;;;;5036054;28;20202;-79
2024/03/12 04:59:47;;;;;;;11.70;11.00;;;5.60;99.90;;;;;;5037803;28;20637;-77
2024/03/12 05:02:15;;;;;;;11.90;11.13;;;5.70;99.90;;;;;;5045514;28;20225;-78
2024/03/12 05:04:42;;;;;;;11.90;11.10;;;5.70;99.90;;;;;;5043533;28;20220;-77
2024/03/12 05:07:09;;;;;;;12.00;11.20;;;5.80;99.90;;;;;;5050695;28;20195;-78
2024/03/12 05:09:36;;;;;;;11.87;11.17;;;5.80;99.90;;;;;;5042471;28;20206;-78
2024/03/12 05:12:02;;;;;;;11.87;11.17;;;5.80;99.90;;;;;;5050056;28;20670;-78
2024/03/12 05:14:29;;;;;;;11.70;11.00;;;5.80;99.90;;;;;;5052308;28;20225;-78
2024/03/12 05:16:59;;;;;;;12.10;11.40;;;5.80;99.90;;;;;;5046771;28;20194;-78
2024/03/12 05:19:26;;;;;;;12.40;11.60;;;5.90;99.90;;;;;;5051250;28;20657;-79
2024/03/12 05:21:53;;;;;;;11.90;11.17;;;5.90;99.90;;;;;;5049750;28;20229;-79
2024/03/12 05:24:20;;;;;;;12.13;11.37;;;5.90;99.90;;;;;;5049871;28;20202;-79
2024/03/12 05:26:49;;;;;;;12.77;11.97;;;5.90;99.90;;;;;;5042641;28;20196;-78
2024/03/12 05:29:17;;;;;;;11.53;10.83;;;6.00;99.90;;;;;;5049753;28;20571;-78
2024/03/12 05:31:44;;;;;;;12.20;11.40;;;5.90;99.90;;;;;;5049365;28;20321;-77
2024/03/12 05:34:16;;;;;;;11.80;11.10;;;6.00;99.90;;;;;;5049796;28;20225;-78
2024/03/12 05:36:48;;;;;;;12.10;11.30;;;6.00;99.90;;;;;;5049573;28;20210;-78
2024/03/12 05:39:37;;;;;;;13.07;12.17;;;6.00;99.90;;;;;;5049772;28;20230;-78
2024/03/12 05:50:19;;;;;;;13.00;12.10;;;6.00;99.90;;;;;;5045201;28;20238;-78
2024/03/12 05:52:46;;;;;;;11.67;10.97;;;6.00;99.90;;;;;;5043486;28;20207;-78
2024/03/12 05:55:15;;;;;;;11.80;11.10;;;6.00;99.90;;;;;;5044729;28;20345;-78
2024/03/12 05:57:43;;;;;;;12.60;11.80;;;6.00;99.90;;;;;;5051567;28;20195;-79
2024/03/12 06:00:12;;;;;;;13.23;12.23;;;6.00;99.90;;;;;;5045109;28;20207;-79
2024/03/12 06:02:42;;;;;;;12.60;11.80;;;6.00;99.90;;;;;;5049184;28;20202;-79
2024/03/12 06:05:12;;;;;;;13.27;12.10;;;6.00;99.90;;;;;;5049910;28;20689;-79
2024/03/12 06:07:40;;;;;;;12.20;11.30;;;6.00;99.90;;;;;;5043794;28;20214;-78
2024/03/12 06:10:08;;;;;;;12.20;11.40;;;6.10;99.90;;;;;;5052599;28;20214;-79
2024/03/12 06:12:35;;;;;;;12.00;11.20;;;6.10;99.90;;;;;;5043209;28;20223;-79
2024/03/12 06:15:02;;;;;;;12.20;11.40;;;6.10;99.90;;;;;;5047575;28;20211;-79
2024/03/12 06:17:28;;;;;;;13.00;12.20;;;6.10;99.90;;;;;;5056011;28;20197;-80
2024/03/12 06:19:55;;;;;;;12.77;11.87;;;6.10;99.90;;;;;;5048735;28;20601;-78
2024/03/12 06:22:22;;;;;;;12.83;12.03;;;6.10;99.90;;;;;;5048184;28;20688;-78
2024/03/12 06:25:14;;;;;;;13.23;12.33;;;6.10;99.90;;;;;;5039634;28;20216;-80
2024/03/12 06:27:41;;;;;;;13.10;12.13;;;6.10;99.90;;;;;;5050000;28;20226;-78
2024/03/12 06:30:08;;;;;;;13.03;12.13;;;6.10;99.90;;;;;;5049375;28;20271;-78
2024/03/12 06:32:35;;;;;;;12.40;11.60;;;6.20;99.90;;;;;;5043993;28;20215;-78
2024/03/12 06:35:02;;;;;;;13.00;12.10;;;6.30;99.90;;;;;;5051008;28;20215;-78
2024/03/12 06:37:29;;;;;;;12.37;11.47;;;6.30;99.90;;;;;;5043680;28;20206;-79
2024/03/12 06:39:56;;;;;;;12.93;11.97;;;6.40;99.90;;;;;;5052862;28;20210;-78
2024/03/12 06:42:29;;;;;;;13.50;12.40;;;6.40;99.90;;;;;;5048747;28;20238;-78
2024/03/12 06:44:56;;;;;;;13.23;12.10;;;6.50;99.90;;;;;;5045865;28;20222;-78
2024/03/12 06:47:24;;;;;;;12.70;11.80;;;6.50;99.90;;;;;;5047550;28;20229;-78
2024/03/12 06:49:51;;;;;;;13.00;11.90;;;6.60;99.90;;;;;;5046592;28;20257;-78
2024/03/12 06:52:18;;;;;;;13.17;12.17;;;6.60;99.90;;;;;;5048812;28;20210;-79
2024/03/12 06:54:45;;;;;;;13.50;12.10;;;6.70;99.90;;;;;;5052025;28;20231;-78
2024/03/12 06:57:12;;;;;;;13.37;12.43;;;6.70;99.90;;;;;;5049635;28;20234;-78
2024/03/12 06:59:43;;;;;;;13.00;12.00;;;6.80;99.90;;;;;;5050660;28;20572;-79
2024/03/12 07:02:11;;;;;;;12.67;11.57;;;6.80;99.90;;;;;;5048365;28;20214;-79
2024/03/12 07:04:43;;;;;;;12.67;11.63;;;6.90;99.90;;;;;;5049990;28;20417;-78
2024/03/12 07:07:13;;;;;;;12.67;11.67;;;6.90;99.90;;;;;;5053168;28;20204;-79
2024/03/12 07:09:41;;;;;;;12.63;11.63;;;7.00;99.90;;;;;;5054074;28;20191;-79
2024/03/12 07:12:09;;;;;;;12.70;11.70;;;7.10;99.90;;;;;;5048619;28;20196;-79
2024/03/12 07:14:42;;;;;;;13.23;12.17;;;7.10;99.90;;;;;;5049261;28;20230;-79
2024/03/12 07:17:10;;;;;;;12.90;11.97;;;7.20;99.90;;;;;;5045622;28;20218;-79
2024/03/12 07:19:38;;;;;;;12.47;11.37;;;7.30;99.90;;;;;;5046061;28;20246;-79
2024/03/12 07:22:07;;;;;;;12.37;11.57;;;7.40;99.90;;;;;;5048461;28;20188;-79
2024/03/12 07:24:35;;;;;;;12.03;11.13;;;7.40;99.90;;;;;;5047394;28;20223;-79
2024/03/12 07:27:03;;;;;;;11.30;10.60;;;7.50;99.90;;;;;;5052328;28;20262;-79
2024/03/12 07:29:30;;;;;;;11.13;10.43;;;7.70;99.90;;;;;;5052228;28;20203;-79
2024/03/12 07:31:57;;;;;;;10.90;10.20;;;7.80;99.90;;;;;;5044366;28;20693;-78
2024/03/12 07:34:25;;;;;;;10.97;10.27;;;7.90;99.90;;;;;;5047469;28;20258;-78
2024/03/12 07:36:52;;;;;;;11.80;11.00;;;8.00;99.90;;;;;;5037090;28;20203;-78
2024/03/12 07:39:31;;;;;;;11.00;10.20;;;8.10;99.90;;;;;;5044959;28;20759;-79
2024/03/12 07:41:59;;;;;;;10.50;9.83;;;8.20;99.90;;;;;;5044163;28;20242;-79
2024/03/12 07:44:26;;;;;;;10.83;10.13;;;8.30;99.90;;;;;;5051938;28;20230;-78
2024/03/12 07:46:54;;;;;;;10.90;10.20;;;8.30;99.90;;;;;;5066371;28;20204;-79
2024/03/12 07:49:21;;;;;;;10.40;9.77;;;8.40;99.90;;;;;;5052882;28;20206;-80
2024/03/12 07:51:50;;;;;;;10.27;9.57;;;8.40;99.90;;;;;;5046833;28;20576;-80
2024/03/12 07:54:18;;;;;;;10.70;10.00;;;8.50;99.90;;;;;;5052647;28;20215;-77
2024/03/12 07:56:48;;;;;;;11.00;10.20;;;8.60;99.90;;;;;;5047558;28;20211;-77
2024/03/12 07:59:16;;;;;;;11.27;10.40;;;8.70;99.90;;;;;;5052960;28;20269;-77
2024/03/12 08:01:44;;;;;;;9.80;9.20;;;8.80;99.90;;;;;;5049570;28;20198;-77
2024/03/12 08:04:12;;;;;;;9.40;8.80;;;8.80;99.90;;;;;;5044178;28;20548;-77
2024/03/12 08:06:40;;;;;;;9.00;8.50;;;9.00;99.90;;;;;;5044421;28;20193;-77
2024/03/12 08:09:08;;;;;;;8.80;8.30;;;8.90;99.90;;;;;;5054742;28;20665;-77
2024/03/12 08:11:36;;;;;;;9.67;8.97;;;9.00;99.90;;;;;;5047910;28;20207;-77
2024/03/12 08:14:03;;;;;;;9.43;8.83;;;9.00;99.90;;;;;;5052863;28;20286;-77
2024/03/12 08:16:30;;;;;;;9.43;8.80;;;9.00;99.90;;;;;;5053353;28;20282;-77
2024/03/12 08:18:58;;;;;;;9.23;8.73;;;8.90;99.90;;;;;;5040083;28;20195;-77
2024/03/12 08:21:27;;;;;;;9.27;8.70;;;8.90;99.90;;;;;;5053719;28;20198;-77
2024/03/12 08:23:56;;;;;;;9.10;8.40;;;8.90;99.90;;;;;;5055604;28;20204;-77
2024/03/12 08:26:26;;;;;;;9.00;8.40;;;8.80;99.90;;;;;;5043852;28;20917;-77
2024/03/12 08:28:53;;;;;;;9.20;8.50;;;8.80;99.90;;;;;;5038080;28;20659;-77
2024/03/12 08:31:20;;;;;;;9.00;8.40;;;8.70;99.90;;;;;;5053675;28;20667;-77
2024/03/12 08:33:46;;;;;;;8.67;8.07;;;8.70;99.90;;;;;;5050831;28;20597;-77
2024/03/12 08:36:14;;;;;;;8.83;8.33;;;8.60;99.90;;;;;;5045189;28;20312;-78
2024/03/12 08:38:41;;;;;;;8.93;8.00;;;8.50;99.90;;;;;;5050565;28;20210;-78
2024/03/12 08:41:09;;;;;;;8.57;7.97;;;8.40;99.90;;;;;;5039528;28;20694;-78
2024/03/12 08:43:38;;;;;;;8.10;7.60;;;8.40;99.90;;;;;;5042139;28;20249;-77
2024/03/12 08:46:06;;;;;;;8.30;7.80;;;8.30;99.90;;;;;;5050250;28;20230;-78
2024/03/12 08:48:33;;;;;;;8.70;8.20;;;8.20;99.90;;;;;;5050494;28;20312;-78
2024/03/12 08:51:01;;;;;;;8.53;7.80;;;8.20;99.90;;;;;;5051507;28;20199;-78
2024/03/12 08:53:28;;;;;;;8.90;8.30;;;8.10;99.90;;;;;;5051678;28;20215;-78
2024/03/12 08:55:54;;;;;;;8.20;7.70;;;8.20;99.90;;;;;;5049457;28;20235;-78
2024/03/12 08:58:23;;;;;;;7.93;7.53;;;8.20;99.90;;;;;;5048666;28;20253;-78
2024/03/12 09:00:51;;;;;;;8.43;7.93;;;8.30;99.90;;;;;;5043288;28;20685;-78
2024/03/12 09:03:18;;;;;;;8.00;7.60;;;8.40;99.90;;;;;;5048239;28;20191;-78
2024/03/12 09:05:45;;;;;;;8.10;7.63;;;8.60;99.90;;;;;;5051358;28;20620;-78
2024/03/12 09:08:12;;;;;;;8.50;8.00;;;8.70;99.90;;;;;;5039275;28;20200;-78
2024/03/12 09:10:38;;;;;;;8.73;8.23;;;8.70;99.90;;;;;;5050049;28;20288;-78
2024/03/12 09:13:06;;;;;;;8.80;8.20;;;8.80;99.90;;;;;;5048192;28;20195;-78
2024/03/12 09:15:33;;;;;;;8.20;7.80;;;8.90;99.90;;;;;;5043906;28;20702;-78
2024/03/12 09:18:04;;;;;;;8.90;8.40;;;9.00;99.90;;;;;;5048666;28;20195;-77
2024/03/12 09:20:31;;;;;;;8.73;8.23;;;8.90;99.90;;;;;;5041683;28;20350;-78
2024/03/12 09:22:59;;;;;;;9.40;8.80;;;9.00;99.90;;;;;;5051065;28;20270;-78
2024/03/12 09:25:26;;;;;;;9.13;8.53;;;9.00;99.90;;;;;;5049431;28;20214;-78
2024/03/12 09:27:53;;;;;;;9.27;8.67;;;9.10;99.90;;;;;;5049610;28;20206;-77
2024/03/12 09:30:20;;;;;;;9.53;8.93;;;9.10;99.90;;;;;;5051834;28;20266;-78
2024/03/12 09:32:47;;;;;;;10.23;9.60;;;9.20;99.90;;;;;;5046261;28;20227;-78
2024/03/12 09:35:15;;;;;;;10.20;9.60;;;9.20;99.90;;;;;;5046881;22;20262;-79
2024/03/12 09:37:42;;;;;;;10.07;9.37;;;9.30;99.90;;;;;;5032879;28;20224;-78
2024/03/12 09:40:11;;;;;;;10.50;9.90;;;9.40;99.90;;;;;;5038710;28;20259;-79
2024/03/12 09:42:38;;;;;;;10.10;9.40;;;9.50;99.90;;;;;;5025470;28;20200;-78
2024/03/12 09:45:08;;;;;;;10.97;10.27;;;9.60;99.90;;;;;;5021280;28;20222;-78
2024/03/12 09:47:36;;;;;;;11.03;10.40;;;9.80;99.90;;;;;;5009981;28;20236;-78
2024/03/12 09:50:10;;;;;;;10.70;10.00;;;9.90;99.90;;;;;;5013840;28;20197;-78
2024/03/12 09:52:39;;;;;;;11.00;10.30;;;10.10;99.90;;;;;;5015135;28;20194;-78
2024/03/12 09:55:10;;;;;;;11.30;10.60;;;10.40;99.90;;;;;;5014604;28;20314;-78
2024/03/12 09:57:37;;;;;;;10.70;10.10;;;10.60;99.90;;;;;;5015587;28;20640;-78
2024/03/12 10:00:06;;;;;;;11.13;10.33;;;10.80;99.90;;;;;;5019442;28;20215;-78
2024/03/12 10:02:35;;;;;;;10.50;9.80;;;10.70;99.90;;;;;;5008612;28;20667;-78
2024/03/12 10:05:02;;;;;;;10.83;10.03;;;10.60;99.90;;;;;;5013376;28;20219;-78
2024/03/12 10:07:29;;;;;;;10.40;9.80;;;10.40;99.90;;;;;;5014952;28;20607;-78
2024/03/12 10:09:57;;;;;;;10.10;9.50;;;10.20;99.90;;;;;;5013425;28;20663;-77
2024/03/12 10:12:24;;;;;;;10.40;9.70;;;10.10;99.90;;;;;;5010524;28;20616;-78
2024/03/12 10:14:53;;;;;;;10.60;9.90;;;10.00;99.90;;;;;;5014572;28;20277;-78
2024/03/12 10:17:20;;;;;;;11.27;10.47;;;10.00;99.90;;;;;;5016168;28;20206;-78
2024/03/12 10:19:50;;;;;;;11.43;10.53;;;10.00;99.90;;;;;;5014025;28;20187;-78
2024/03/12 10:22:20;;;;;;;11.43;10.63;;;10.00;99.90;;;;;;5022494;28;20202;-77
2024/03/12 10:24:48;;;;;;;11.37;10.57;;;10.10;99.90;;;;;;5014588;28;20351;-78
2024/03/12 10:27:18;;;;;;;12.20;11.20;;;10.10;99.90;;;;;;5014012;28;20625;-78
2024/03/12 10:29:45;;;;;;;12.00;11.10;;;10.10;99.90;;;;;;5013218;28;20199;-78
2024/03/12 10:32:19;;;;;;;12.23;11.23;;;10.10;99.90;;;;;;5013074;28;20863;-78
2024/03/12 10:34:46;;;;;;;11.60;10.80;;;10.00;99.90;;;;;;5018443;28;20214;-78
2024/03/12 10:37:26;;;;;;;12.07;11.10;;;10.10;99.90;;;;;;5014424;28;20199;-77
2024/03/12 10:39:54;;;;;;;12.67;11.67;;;10.20;99.90;;;;;;5020778;28;20198;-79
2024/03/12 10:42:22;;;;;;;12.43;11.43;;;10.00;99.90;;;;;;5013850;28;20700;-78
2024/03/12 10:44:49;;;;;;;12.30;11.23;;;9.90;99.90;;;;;;5014698;28;20239;-79
2024/03/12 10:47:18;;;;;;;12.00;11.10;;;9.80;99.90;;;;;;5012704;28;20280;-78
2024/03/12 10:49:48;;;;;;;12.30;11.40;;;9.70;99.90;;;;;;5019722;28;20198;-79
2024/03/12 10:52:17;;;;;;;12.60;11.60;;;9.60;99.90;;;;;;5015602;28;20234;-79
2024/03/12 10:54:46;;;;;;;12.63;11.80;;;9.60;99.90;;;;;;5014738;28;20233;-78
2024/03/12 10:57:13;;;;;;;12.50;11.60;;;9.60;99.90;;;;;;5014812;28;20244;-79
2024/03/12 10:59:43;;;;;;;13.17;12.17;;;9.60;99.90;;;;;;5012806;28;20668;-79
2024/03/12 11:02:11;;;;;;;12.90;12.00;;;9.60;99.90;;;;;;5015658;28;20230;-79
2024/03/12 11:04:39;;;;;;;13.30;12.30;;;9.60;99.90;;;;;;5014656;28;20249;-79
2024/03/12 11:07:08;;;;;;;12.33;11.43;;;9.60;99.90;;;;;;5011271;28;20661;-78
2024/03/12 11:09:35;;;;;;;12.90;12.00;;;9.80;99.90;;;;;;5012950;28;20226;-79
2024/03/12 11:12:04;;;;;;;13.33;12.33;;;9.90;99.90;;;;;;5012624;28;20220;-78
2024/03/12 11:14:31;;;;;;;12.97;11.93;;;9.90;99.90;;;;;;5014012;28;20293;-79
2024/03/12 11:17:00;;;;;;;13.13;12.07;;;9.90;99.90;;;;;;5022266;28;20680;-79
2024/03/12 11:19:27;;;;;;;13.30;12.20;;;9.80;99.90;;;;;;5012887;28;20221;-79
2024/03/12 11:22:01;;;;;;;12.60;11.60;;;9.80;99.90;;;;;;5014098;28;20210;-78
2024/03/12 11:24:29;;;;;;;12.20;11.30;;;9.90;99.90;;;;;;5014223;28;20588;-79
2024/03/12 11:26:59;;;;;;;12.27;11.27;;;9.90;99.90;;;;;;5019288;28;20198;-79
2024/03/12 11:29:59;;;;;;;12.53;11.63;;;10.00;99.90;;;;;;5014021;28;20202;-78
2024/03/12 11:32:29;;;;;;;12.37;11.50;;;10.10;99.90;;;;;;5010453;28;20340;-79
2024/03/12 11:34:57;;;;;;;12.50;11.60;;;10.30;99.90;;;;;;5024794;28;20236;-78
2024/03/12 11:37:25;;;;;;;13.40;12.33;;;10.30;99.90;;;;;;5022735;28;20199;-78
2024/03/12 11:40:34;;;;;;;12.87;11.93;;;10.40;99.90;;;;;;5017780;28;20372;-78
2024/03/12 11:43:01;;;;;;;13.07;11.97;;;10.50;99.90;;;;;;4985494;28;20216;-78
2024/03/12 11:45:42;;;;;;;12.70;11.80;;;10.60;99.90;;;;;;5011832;28;20384;-79
2024/03/12 11:48:19;;;;;;;11.57;10.70;;;10.60;99.90;;;;;;5012435;28;20615;-78
2024/03/12 11:50:52;;;;;;;11.50;10.60;;;10.60;99.90;;;;;;5012319;28;20261;-79
2024/03/12 11:53:20;;;;;;;12.00;11.10;;;10.60;99.90;;;;;;5011851;28;20248;-79
2024/03/12 11:55:58;;;;;;;11.50;10.60;;;10.70;99.90;;;;;;5012075;28;20218;-78
2024/03/12 11:58:27;;;;;;;11.63;10.73;;;10.50;99.90;;;;;;5011877;28;20718;-79
2024/03/12 12:00:55;;;;;;;11.80;11.00;;;10.40;99.90;;;;;;5012197;28;20203;-78
2024/03/12 12:03:23;;;;;;;11.97;11.07;;;10.20;99.90;;;;;;5012050;28;20210;-78
2024/03/12 12:05:52;;;;;;;11.40;10.60;;;10.20;99.90;;;;;;5018835;28;20269;-79
2024/03/12 12:08:19;;;;;;;11.70;10.80;;;10.10;99.90;;;;;;5013901;28;20209;-75
2024/03/12 12:11:02;;;;;;;11.73;10.93;;;10.00;99.90;;;;;;5011933;28;20196;-78
2024/03/12 12:13:30;;;;;;;11.50;10.70;;;10.10;99.90;;;;;;5011420;28;20214;-79
2024/03/12 12:15:59;;;;;;;12.00;11.20;;;10.10;99.90;;;;;;5011370;28;20225;-78
2024/03/12 12:18:29;;;;;;;12.27;11.37;;;10.00;99.90;;;;;;5021083;28;20580;-78
2024/03/12 12:20:58;;;;;;;12.03;11.13;;;9.90;99.90;;;;;;5013382;28;20575;-79
2024/03/12 12:23:26;;;;;;;11.20;10.40;;;9.90;99.90;;;;;;5014581;28;20205;-78
2024/03/12 12:25:55;;;;;;;11.47;10.67;;;9.90;99.90;;;;;;5012523;28;20244;-79
2024/03/12 12:28:24;;;;;;;11.90;11.10;;;10.00;99.90;;;;;;5012736;28;20222;-79
2024/03/12 12:30:54;;;;;;;12.43;11.47;;;10.00;99.90;;;;;;5011283;28;20255;-79
2024/03/12 12:33:23;;;;;;;12.20;11.30;;;10.00;99.90;;;;;;5012841;28;20207;-79
2024/03/12 12:35:54;;;;;;;10.87;10.17;;;10.00;99.90;;;;;;5011195;28;20215;-79
2024/03/12 12:38:23;;;;;;;11.77;10.87;;;10.00;99.90;;;;;;5011969;28;20207;-79
2024/03/12 12:40:50;;;;;;;11.53;10.73;;;9.90;99.90;;;;;;5012697;28;20627;-79
2024/03/12 12:43:19;;;;;;;10.20;9.50;;;9.90;99.90;;;;;;5011638;28;20300;-78
2024/03/12 12:45:47;;;;;;;10.47;9.67;;;9.90;99.90;;;;;;5013993;28;20302;-78
2024/03/12 12:48:15;;;;;;;11.10;10.30;;;9.90;99.90;;;;;;5011110;28;20207;-78
2024/03/12 12:50:43;;;;;;;9.93;9.23;;;9.80;99.90;;;;;;5015343;28;20684;-79
2024/03/12 12:53:12;;;;;;;12.60;11.70;;;9.80;99.90;;;;;;5012557;28;20197;-79